| time (UTC) | temp F | wind direction | speed knots | gust knots | rain 1hr in | rain 24hr in | rain mn in | humidity % | barometer mb |
| 20260510142601 | 57 | 93 | 0.0 | 3.5 | 0.16 | 0.16 | 0.16 | 82 | 1011.4 |
| 20260510142504 | 57 | 110 | 0.9 | 5.2 | 0.16 | 0.16 | 0.16 | 81 | 1016.0 |
| 20260510142502 | 57 | 110 | 0.0 | 5.2 | 0.16 | 0.16 | 0.16 | 81 | 1011.5 |
| 20260510142100 | 57 | 130 | 0.0 | 10.4 | 0.14 | 0.14 | 0.14 | 80 | 1011.6 |
| 20260510142001 | 57 | 153 | 3.5 | 10.4 | 0.14 | 0.14 | 0.14 | 79 | 1016.2 |
| 20260510141605 | 57 | 244 | 3.5 | 11.3 | 0.13 | 0.13 | 0.13 | 77 | 1011.8 |
| 20260510141501 | 57 | 251 | 6.1 | 12.2 | 0.13 | 0.13 | 0.13 | 77 | 1016.3 |
| 20260510141101 | 57 | 266 | 7.0 | 13.0 | 0.12 | 0.12 | 0.12 | 77 | 1011.8 |
| 20260510141003 | 58 | 281 | 7.0 | 13.0 | 0.12 | 0.12 | 0.12 | 77 | 1016.1 |
| 20260510140600 | 58 | 314 | 7.0 | 16.5 | 0.11 | 0.11 | 0.11 | 78 | 1011.5 |
| 20260510140501 | 59 | 250 | 7.8 | 16.5 | 0.11 | 0.11 | 0.11 | 78 | 1016.0 |
| 20260510140005 | 61 | 276 | 7.0 | 17.4 | 0.05 | 0.05 | 0.05 | 79 | 1015.8 |
| 20260510140003 | 61 | 276 | 8.7 | 17.4 | 0.05 | 0.05 | 0.05 | 79 | 1011.2 |
| 20260510135602 | 63 | 288 | 7.8 | 17.4 | 0.02 | 0.02 | 0.02 | 77 | 1011.0 |
| 20260510135102 | 63 | 232 | 3.5 | 9.6 | 0.00 | 0.00 | 0.00 | 76 | 1010.8 |
| 20260510135002 | 63 | 215 | 4.3 | 9.6 | 0.00 | 0.00 | 0.00 | 76 | 1015.2 |
| 20260510134502 | 63 | 289 | 4.3 | 7.8 | 0.00 | 0.00 | 0.00 | 74 | 1014.5 |
| 20260510134100 | 64 | 304 | 4.3 | 7.8 | 0.00 | 0.00 | 0.00 | 71 | 1009.5 |
| 20260510134003 | 64 | 337 | 3.5 | 7.8 | 0.00 | 0.00 | 0.00 | 70 | 1014.0 |
| 20260510133602 | 64 | 89 | 2.6 | 7.0 | 0.00 | 0.00 | 0.00 | 70 | 1009.3 |
| 20260510133100 | 64 | 292 | 2.6 | 4.3 | 0.00 | 0.00 | 0.00 | 71 | 1009.3 |
| 20260510133000 | 64 | 280 | 1.7 | 7.8 | 0.00 | 0.00 | 0.00 | 71 | 1009.3 |
| 20260510132603 | 64 | 300 | 0.9 | 7.8 | 0.00 | 0.00 | 0.00 | 71 | 1009.1 |
| 20260510132101 | 65 | 291 | 3.5 | 7.8 | 0.00 | 0.00 | 0.00 | 69 | 1008.9 |
| 20260510132003 | 65 | 315 | 3.5 | 7.8 | 0.00 | 0.00 | 0.00 | 69 | 1013.4 |
| 20260510132001 | 65 | 315 | 2.6 | 7.8 | 0.00 | 0.00 | 0.00 | 69 | 1008.8 |
| 20260510131601 | 65 | 309 | 2.6 | 7.8 | 0.00 | 0.00 | 0.00 | 68 | 1008.7 |
| 20260510131501 | 65 | 315 | 4.3 | 7.8 | 0.00 | 0.00 | 0.00 | 68 | 1013.3 |
| 20260510131100 | 65 | 296 | 2.6 | 9.6 | 0.00 | 0.00 | 0.00 | 67 | 1008.7 |
| 20260510131001 | 65 | 360 | 5.2 | 9.6 | 0.00 | 0.00 | 0.00 | 67 | 1013.2 |
| 20260510130600 | 66 | 338 | 6.1 | 9.6 | 0.00 | 0.00 | 0.00 | 64 | 1008.8 |
| 20260510130003 | 66 | 329 | 2.6 | 7.8 | 0.00 | 0.00 | 0.00 | 60 | 1008.7 |
| 20260510125603 | 67 | 342 | 4.3 | 7.8 | 0.00 | 0.00 | 0.00 | 59 | 1008.6 |
| 20260510125501 | 67 | 54 | 4.3 | 7.8 | 0.00 | 0.00 | 0.00 | 59 | 1013.1 |
| 20260510125100 | 67 | 334 | 4.3 | 10.4 | 0.00 | 0.00 | 0.00 | 56 | 1008.6 |
| 20260510125001 | 67 | 323 | 4.3 | 10.4 | 0.00 | 0.00 | 0.00 | 57 | 1013.2 |
| 20260510124559 | 67 | 323 | 5.2 | 10.4 | 0.00 | 0.00 | 0.00 | 57 | 1008.6 |
| 20260510124502 | 67 | 7 | 3.5 | 10.4 | 0.00 | 0.00 | 0.00 | 56 | 1013.2 |
| 20260510124500 | 67 | 7 | 5.2 | 10.4 | 0.00 | 0.00 | 0.00 | 56 | 1008.6 |
| 20260510124100 | 68 | 338 | 2.6 | 6.1 | 0.00 | 0.00 | 0.00 | 54 | 1008.7 |
| 20260510124003 | 68 | 345 | 2.6 | 6.1 | 0.00 | 0.00 | 0.00 | 54 | 1013.2 |
| 20260510123601 | 68 | 283 | 2.6 | 7.8 | 0.00 | 0.00 | 0.00 | 55 | 1008.7 |
| 20260510123502 | 68 | 29 | 3.5 | 7.8 | 0.00 | 0.00 | 0.00 | 55 | 1013.2 |
| 20260510123101 | 67 | 341 | 3.5 | 8.7 | 0.00 | 0.00 | 0.00 | 54 | 1008.7 |
| 20260510123002 | 67 | 335 | 3.5 | 8.7 | 0.00 | 0.00 | 0.00 | 54 | 1008.7 |
| 20260510122600 | 68 | 3 | 3.5 | 7.0 | 0.00 | 0.00 | 0.00 | 54 | 1008.8 |
| 20260510122501 | 68 | 351 | 3.5 | 7.0 | 0.00 | 0.00 | 0.00 | 54 | 1013.3 |
| 20260510122100 | 69 | 8 | 2.6 | 5.2 | 0.00 | 0.00 | 0.00 | 52 | 1008.8 |
| 20260510121600 | 69 | 24 | 2.6 | 6.1 | 0.00 | 0.00 | 0.00 | 50 | 1008.8 |
| 20260510121501 | 69 | 317 | 2.6 | 6.1 | 0.00 | 0.00 | 0.00 | 52 | 1008.8 |
| 20260510121103 | 68 | 5 | 2.6 | 7.0 | 0.00 | 0.00 | 0.00 | 53 | 1008.9 |
| 20260510121001 | 68 | 319 | 3.5 | 7.0 | 0.00 | 0.00 | 0.00 | 53 | 1013.5 |
| 20260510120602 | 67 | 315 | 2.6 | 7.0 | 0.00 | 0.00 | 0.00 | 55 | 1009.0 |
| 20260510120501 | 67 | 359 | 4.3 | 7.0 | 0.00 | 0.00 | 0.00 | 54 | 1013.6 |
| 20260510120101 | 67 | 338 | 4.3 | 7.0 | 0.00 | 0.00 | 0.00 | 51 | 1009.1 |
| 20260510120005 | 67 | 309 | 3.5 | 7.0 | 0.00 | 0.00 | 0.00 | 55 | 1009.1 |
| 20260510115600 | 67 | 17 | 4.3 | 7.0 | 0.00 | 0.00 | 0.00 | 56 | 1009.2 |
| 20260510115501 | 67 | 23 | 4.3 | 7.0 | 0.00 | 0.00 | 0.00 | 56 | 1013.7 |
| 20260510115100 | 67 | 10 | 4.3 | 7.0 | 0.00 | 0.00 | 0.00 | 54 | 1009.3 |
| 20260510115001 | 67 | 316 | 4.3 | 7.0 | 0.00 | 0.00 | 0.00 | 54 | 1013.8 |
| 20260510114501 | 67 | 2 | 3.5 | 7.0 | 0.00 | 0.00 | 0.00 | 52 | 1013.7 |
| 20260510114100 | 67 | 351 | 2.6 | 6.1 | 0.00 | 0.00 | 0.00 | 53 | 1009.3 |
| 20260510114003 | 67 | 308 | 3.5 | 6.1 | 0.00 | 0.00 | 0.00 | 58 | 1013.8 |
| 20260510113600 | 67 | 342 | 2.6 | 7.8 | 0.00 | 0.00 | 0.00 | 57 | 1009.4 |
| 20260510113501 | 67 | 349 | 3.5 | 7.8 | 0.00 | 0.00 | 0.00 | 57 | 1013.9 |
| 20260510113121 | 68 | 306 | 3.5 | 7.8 | 0.00 | 0.00 | 0.00 | 56 | 1009.5 |
| 20260510113001 | 68 | 314 | 3.5 | 7.8 | 0.00 | 0.00 | 0.00 | 55 | 1009.4 |
| 20260510112503 | 68 | 323 | 3.5 | 7.8 | 0.00 | 0.00 | 0.00 | 56 | 1014.0 |
| 20260510112101 | 68 | 46 | 2.6 | 7.8 | 0.00 | 0.00 | 0.00 | 54 | 1009.5 |
| 20260510112001 | 68 | 290 | 4.3 | 8.7 | 0.00 | 0.00 | 0.00 | 53 | 1014.0 |
| 20260510111601 | 68 | 333 | 4.3 | 8.7 | 0.00 | 0.00 | 0.00 | 54 | 1009.4 |
| 20260510111503 | 68 | 322 | 3.5 | 8.7 | 0.00 | 0.00 | 0.00 | 55 | 1014.0 |
| 20260510111100 | 68 | 295 | 2.6 | 5.2 | 0.00 | 0.00 | 0.00 | 55 | 1009.6 |
| 20260510111001 | 68 | 293 | 2.6 | 5.2 | 0.00 | 0.00 | 0.00 | 55 | 1014.1 |
| 20260510110602 | 68 | 348 | 1.7 | 5.2 | 0.00 | 0.00 | 0.00 | 54 | 1009.7 |
| 20260510110501 | 68 | 297 | 1.7 | 5.2 | 0.00 | 0.00 | 0.00 | 54 | 1014.2 |
| 20260510110101 | 68 | 327 | 0.9 | 5.2 | 0.00 | 0.00 | 0.00 | 54 | 1009.7 |
| 20260510110003 | 68 | 315 | 0.9 | 5.2 | 0.00 | 0.00 | 0.00 | 54 | 1009.7 |
| 20260510105600 | 67 | 324 | 1.7 | 5.2 | 0.00 | 0.00 | 0.00 | 57 | 1009.8 |
| 20260510105103 | 68 | 302 | 2.6 | 5.2 | 0.00 | 0.00 | 0.00 | 54 | 1009.9 |
| 20260510105001 | 69 | 326 | 2.6 | 5.2 | 0.00 | 0.00 | 0.00 | 54 | 1014.4 |
| 20260510104604 | 69 | 311 | 1.7 | 5.2 | 0.00 | 0.00 | 0.00 | 53 | 1010.0 |
| 20260510104501 | 69 | 314 | 1.7 | 6.1 | 0.00 | 0.00 | 0.00 | 50 | 1014.5 |
| 20260510104104 | 71 | 224 | 0.9 | 7.8 | 0.00 | 0.00 | 0.00 | 48 | 1010.1 |
| 20260510104004 | 71 | 68 | 1.7 | 7.8 | 0.00 | 0.00 | 0.00 | 48 | 1014.6 |
| 20260510104000 | 71 | 68 | 0.0 | 7.8 | 0.00 | 0.00 | 0.00 | 48 | 1010.1 |
| 20260510103600 | 71 | 129 | 0.9 | 7.8 | 0.00 | 0.00 | 0.00 | 46 | 1010.0 |
| 20260510103501 | 71 | 281 | 2.6 | 7.8 | 0.00 | 0.00 | 0.00 | 46 | 1014.5 |
| 20260510103105 | 71 | 225 | 3.5 | 7.0 | 0.00 | 0.00 | 0.00 | 45 | 1010.0 |
| 20260510102601 | 71 | 293 | 2.6 | 8.7 | 0.00 | 0.00 | 0.00 | 45 | 1010.0 |
| 20260510102501 | 71 | 248 | 4.3 | 8.7 | 0.00 | 0.00 | 0.00 | 45 | 1014.5 |
| 20260510102101 | 71 | 270 | 2.6 | 7.8 | 0.00 | 0.00 | 0.00 | 45 | 1010.1 |
| 20260510101600 | 71 | 208 | 3.5 | 10.4 | 0.00 | 0.00 | 0.00 | 45 | 1010.1 |
| 20260510101503 | 71 | 195 | 4.3 | 10.4 | 0.00 | 0.00 | 0.00 | 45 | 1014.5 |
| 20260510101501 | 71 | 210 | 3.5 | 10.4 | 0.00 | 0.00 | 0.00 | 45 | 1010.0 |
| 20260510101104 | 71 | 162 | 4.3 | 10.4 | 0.00 | 0.00 | 0.00 | 44 | 1010.0 |
| 20260510101000 | 71 | 145 | 3.5 | 8.7 | 0.00 | 0.00 | 0.00 | 44 | 1010.0 |
| 20260510100600 | 71 | 198 | 2.6 | 8.7 | 0.00 | 0.00 | 0.00 | 44 | 1010.0 |
| 20260510100501 | 71 | 155 | 4.3 | 10.4 | 0.00 | 0.00 | 0.00 | 44 | 1014.5 |
| 20260510100100 | 71 | 89 | 3.5 | 10.4 | 0.00 | 0.00 | 0.00 | 44 | 1010.0 |
| 20260510100005 | 71 | 158 | 4.3 | 10.4 | 0.00 | 0.00 | 0.00 | 44 | 1014.5 |
| 20260510100003 | 71 | 158 | 4.3 | 10.4 | 0.00 | 0.00 | 0.00 | 44 | 1010.0 |
| 20260510095601 | 71 | 231 | 3.5 | 7.8 | 0.00 | 0.00 | 0.00 | 44 | 1010.0 |
| 20260510095503 | 71 | 165 | 3.5 | 7.8 | 0.00 | 0.00 | 0.00 | 44 | 1014.5 |
| 20260510095100 | 71 | 99 | 2.6 | 9.6 | 0.00 | 0.00 | 0.00 | 45 | 1010.0 |
| 20260510095001 | 71 | 110 | 3.5 | 9.6 | 0.00 | 0.00 | 0.00 | 45 | 1014.5 |
| 20260510094601 | 71 | 163 | 3.5 | 9.6 | 0.00 | 0.00 | 0.00 | 46 | 1009.9 |
| 20260510094501 | 71 | 101 | 4.3 | 9.6 | 0.00 | 0.00 | 0.00 | 45 | 1014.5 |
| 20260510094100 | 71 | 133 | 3.5 | 8.7 | 0.00 | 0.00 | 0.00 | 46 | 1010.1 |
| 20260510094003 | 71 | 218 | 3.5 | 8.7 | 0.00 | 0.00 | 0.00 | 46 | 1014.5 |
| 20260510093600 | 71 | 219 | 3.5 | 9.6 | 0.00 | 0.00 | 0.00 | 46 | 1010.0 |
| 20260510093502 | 71 | 180 | 3.5 | 9.6 | 0.00 | 0.00 | 0.00 | 46 | 1014.6 |
| 20260510093109 | 70 | 275 | 2.6 | 9.6 | 0.00 | 0.00 | 0.00 | 47 | 1010.2 |
| 20260510093002 | 70 | 234 | 3.5 | 9.6 | 0.00 | 0.00 | 0.00 | 47 | 1014.7 |
| 20260510092559 | 70 | 180 | 1.7 | 7.8 | 0.00 | 0.00 | 0.00 | 48 | 1010.2 |
| 20260510092502 | 70 | 231 | 3.5 | 7.8 | 0.00 | 0.00 | 0.00 | 48 | 1014.7 |
| 20260510092100 | 69 | 162 | 2.6 | 7.8 | 0.00 | 0.00 | 0.00 | 48 | 1010.2 |
| 20260510091600 | 69 | 191 | 2.6 | 8.7 | 0.00 | 0.00 | 0.00 | 49 | 1010.2 |
| 20260510091501 | 68 | 157 | 4.3 | 8.7 | 0.00 | 0.00 | 0.00 | 49 | 1014.6 |
| 20260510091100 | 68 | 151 | 2.6 | 9.6 | 0.00 | 0.00 | 0.00 | 51 | 1010.1 |
| 20260510091001 | 68 | 139 | 5.2 | 9.6 | 0.00 | 0.00 | 0.00 | 51 | 1014.6 |
| 20260510090600 | 68 | 169 | 4.3 | 11.3 | 0.00 | 0.00 | 0.00 | 51 | 1010.2 |
| 20260510090501 | 68 | 129 | 4.3 | 11.3 | 0.00 | 0.00 | 0.00 | 51 | 1014.7 |
| 20260510090101 | 67 | 149 | 5.2 | 11.3 | 0.00 | 0.00 | 0.00 | 50 | 1010.3 |
| 20260510090005 | 67 | 132 | 4.3 | 11.3 | 0.00 | 0.00 | 0.00 | 50 | 1010.3 |
| 20260510085604 | 68 | 115 | 5.2 | 11.3 | 0.00 | 0.00 | 0.00 | 50 | 1010.1 |
| 20260510085500 | 68 | 121 | 4.3 | 10.4 | 0.00 | 0.00 | 0.00 | 50 | 1014.7 |
| 20260510085059 | 68 | 79 | 2.6 | 7.0 | 0.00 | 0.00 | 0.00 | 51 | 1010.2 |
| 20260510085000 | 68 | 91 | 3.5 | 7.0 | 0.00 | 0.00 | 0.00 | 51 | 1014.8 |
| 20260510084603 | 68 | 190 | 2.6 | 8.7 | 0.00 | 0.00 | 0.00 | 51 | 1010.4 |
| 20260510084059 | 68 | 189 | 3.5 | 8.7 | 0.00 | 0.00 | 0.00 | 50 | 1010.3 |
| 20260510084000 | 68 | 239 | 3.5 | 8.7 | 0.00 | 0.00 | 0.00 | 50 | 1014.8 |
| 20260510083600 | 68 | 149 | 2.6 | 8.7 | 0.00 | 0.00 | 0.00 | 50 | 1010.2 |
| 20260510083500 | 68 | 162 | 3.5 | 8.7 | 0.00 | 0.00 | 0.00 | 50 | 1014.7 |
| 20260510083100 | 68 | 127 | 3.5 | 10.4 | 0.00 | 0.00 | 0.00 | 50 | 1010.2 |
| 20260510082559 | 68 | 86 | 2.6 | 10.4 | 0.00 | 0.00 | 0.00 | 50 | 1010.2 |
| 20260510082100 | 67 | 155 | 7.0 | 10.4 | 0.00 | 0.00 | 0.00 | 50 | 1010.1 |
| 20260510082001 | 67 | 158 | 5.2 | 10.4 | 0.00 | 0.00 | 0.00 | 51 | 1014.6 |
| 20260510081503 | 67 | 145 | 4.3 | 10.4 | 0.00 | 0.00 | 0.00 | 50 | 1010.2 |
| 20260510081501 | 67 | 130 | 4.3 | 10.4 | 0.00 | 0.00 | 0.00 | 50 | 1014.7 |
| 20260510081100 | 67 | 132 | 4.3 | 10.4 | 0.00 | 0.00 | 0.00 | 51 | 1010.1 |
| 20260510081002 | 67 | 199 | 5.2 | 10.4 | 0.00 | 0.00 | 0.00 | 51 | 1014.6 |
| 20260510080601 | 68 | 131 | 5.2 | 11.3 | 0.00 | 0.00 | 0.00 | 51 | 1010.0 |
| 20260510080502 | 68 | 146 | 5.2 | 11.3 | 0.00 | 0.00 | 0.00 | 51 | 1014.5 |
| 20260510080100 | 68 | 191 | 4.3 | 11.3 | 0.00 | 0.00 | 0.00 | 51 | 1010.0 |
| 20260510080005 | 68 | 193 | 4.3 | 11.3 | 0.00 | 0.00 | 0.00 | 51 | 1014.5 |
| 20260510080002 | 68 | 144 | 4.3 | 11.3 | 0.00 | 0.00 | 0.00 | 51 | 1010.0 |
| 20260510075559 | 68 | 149 | 4.3 | 9.6 | 0.00 | 0.00 | 0.00 | 51 | 1009.9 |
| 20260510075500 | 68 | 223 | 4.3 | 9.6 | 0.00 | 0.00 | 0.00 | 51 | 1014.5 |
| 20260510075059 | 68 | 152 | 2.6 | 6.1 | 0.00 | 0.00 | 0.00 | 51 | 1009.9 |
| 20260510075001 | 68 | 172 | 3.5 | 6.1 | 0.00 | 0.00 | 0.00 | 51 | 1014.4 |
| 20260510074559 | 68 | 159 | 3.5 | 7.0 | 0.00 | 0.00 | 0.00 | 52 | 1009.8 |
| 20260510074502 | 69 | 147 | 4.3 | 7.0 | 0.00 | 0.00 | 0.00 | 52 | 1014.4 |
| 20260510074102 | 69 | 199 | 2.6 | 11.3 | 0.00 | 0.00 | 0.00 | 52 | 1009.8 |
| 20260510074000 | 68 | 134 | 4.3 | 11.3 | 0.00 | 0.00 | 0.00 | 53 | 1014.3 |
| 20260510073559 | 68 | 195 | 6.1 | 11.3 | 0.00 | 0.00 | 0.00 | 52 | 1009.8 |
| 20260510073500 | 69 | 236 | 3.5 | 11.3 | 0.00 | 0.00 | 0.00 | 52 | 1014.3 |
| 20260510073106 | 69 | 154 | 1.7 | 6.1 | 0.00 | 0.00 | 0.00 | 53 | 1009.7 |
| 20260510073000 | 68 | 206 | 2.6 | 6.1 | 0.00 | 0.00 | 0.00 | 53 | 1014.2 |
| 20260510072559 | 69 | 169 | 2.6 | 5.2 | 0.00 | 0.00 | 0.00 | 54 | 1009.6 |
| 20260510072501 | 69 | 114 | 1.7 | 4.3 | 0.00 | 0.00 | 0.00 | 54 | 1014.1 |
| 20260510072059 | 69 | 210 | 1.7 | 3.5 | 0.00 | 0.00 | 0.00 | 54 | 1009.6 |
| 20260510072001 | 69 | 97 | 0.9 | 3.5 | 0.00 | 0.00 | 0.00 | 53 | 1014.1 |
| 20260510071601 | 69 | 97 | 0.0 | 2.6 | 0.00 | 0.00 | 0.00 | 54 | 1009.5 |
| 20260510071500 | 69 | 108 | 0.9 | 2.6 | 0.00 | 0.00 | 0.00 | 54 | 1014.0 |
| 20260510071059 | 68 | 255 | 0.0 | 4.3 | 0.00 | 0.00 | 0.00 | 55 | 1009.4 |
| 20260510070559 | 68 | 113 | 0.9 | 4.3 | 0.00 | 0.00 | 0.00 | 56 | 1009.4 |
| 20260510070500 | 68 | 70 | 1.7 | 4.3 | 0.00 | 0.00 | 0.00 | 56 | 1013.9 |
| 20260510070059 | 67 | 117 | 0.9 | 4.3 | 0.00 | 0.00 | 0.00 | 56 | 1009.4 |
| 20260510070004 | 67 | 109 | 1.7 | 4.3 | 0.00 | 0.00 | 0.00 | 56 | 1013.9 |
| 20260510070002 | 67 | 109 | 0.9 | 4.3 | 0.00 | 0.00 | 0.00 | 56 | 1009.4 |
| 20260510065600 | 67 | 91 | 1.7 | 5.2 | 0.00 | 0.00 | 0.00 | 56 | 1009.3 |
| 20260510065501 | 67 | 80 | 1.7 | 5.2 | 0.00 | 0.00 | 0.00 | 57 | 1013.8 |
| 20260510065100 | 68 | 70 | 0.9 | 3.5 | 0.00 | 0.00 | 0.00 | 56 | 1009.3 |
| 20260510065001 | 68 | 109 | 0.9 | 3.5 | 0.00 | 0.00 | 0.00 | 56 | 1009.3 |
| 20260510064603 | 67 | 199 | 0.9 | 3.5 | 0.00 | 0.00 | 0.00 | 58 | 1009.3 |
| 20260510064502 | 67 | 124 | 1.7 | 3.5 | 0.00 | 0.00 | 0.00 | 58 | 1013.8 |
| 20260510064100 | 67 | 96 | 1.7 | 3.5 | 0.00 | 0.00 | 0.00 | 59 | 1009.2 |
| 20260510064001 | 67 | 101 | 1.7 | 3.5 | 0.00 | 0.00 | 0.00 | 59 | 1013.7 |
| 20260510063600 | 66 | 68 | 1.7 | 3.5 | 0.00 | 0.00 | 0.00 | 59 | 1009.2 |
| 20260510063501 | 66 | 91 | 0.9 | 3.5 | 0.00 | 0.00 | 0.00 | 59 | 1013.7 |
| 20260510063100 | 65 | 102 | 0.9 | 2.6 | 0.00 | 0.00 | 0.00 | 60 | 1009.1 |
| 20260510063004 | 65 | 97 | 0.9 | 2.6 | 0.00 | 0.00 | 0.00 | 60 | 1013.6 |
| 20260510062600 | 65 | 122 | 0.9 | 4.3 | 0.00 | 0.00 | 0.00 | 61 | 1009.1 |
| 20260510062501 | 65 | 108 | 1.7 | 4.3 | 0.00 | 0.00 | 0.00 | 61 | 1013.6 |
| 20260510062059 | 64 | 75 | 0.9 | 4.3 | 0.00 | 0.00 | 0.00 | 62 | 1008.9 |
| 20260510062001 | 64 | 84 | 1.7 | 5.2 | 0.00 | 0.00 | 0.00 | 62 | 1013.5 |
| 20260510061600 | 64 | 185 | 0.9 | 5.2 | 0.00 | 0.00 | 0.00 | 61 | 1008.9 |
| 20260510061500 | 64 | 122 | 1.7 | 5.2 | 0.00 | 0.00 | 0.00 | 61 | 1013.4 |
| 20260510061102 | 64 | 153 | 0.9 | 6.1 | 0.00 | 0.00 | 0.00 | 61 | 1008.8 |
| 20260510061001 | 64 | 99 | 2.6 | 6.1 | 0.00 | 0.00 | 0.00 | 61 | 1013.3 |
| 20260510060601 | 64 | 143 | 2.6 | 7.8 | 0.00 | 0.00 | 0.00 | 61 | 1008.7 |
| 20260510060502 | 64 | 79 | 2.6 | 7.8 | 0.00 | 0.00 | 0.00 | 61 | 1013.2 |
| 20260510060101 | 64 | 165 | 2.6 | 7.8 | 0.00 | 0.00 | 0.00 | 62 | 1008.6 |
| 20260510060006 | 64 | 145 | 2.6 | 5.2 | 0.00 | 0.00 | 0.00 | 62 | 1013.1 |
| 20260510060003 | 64 | 145 | 1.7 | 5.2 | 0.00 | 0.00 | 0.00 | 62 | 1008.6 |
| 20260510055559 | 64 | 82 | 1.7 | 7.8 | 0.00 | 0.00 | 0.00 | 62 | 1008.4 |
| 20260510055501 | 64 | 110 | 2.6 | 7.8 | 0.00 | 0.00 | 0.00 | 62 | 1013.0 |
| 20260510055100 | 64 | 125 | 3.5 | 7.8 | 0.00 | 0.00 | 0.00 | 61 | 1008.5 |
| 20260510055003 | 64 | 84 | 2.6 | 5.2 | 0.00 | 0.00 | 0.00 | 61 | 1013.0 |
| 20260510054600 | 64 | 158 | 1.7 | 5.2 | 0.00 | 0.00 | 0.00 | 62 | 1008.4 |
| 20260510054500 | 64 | 143 | 2.6 | 5.2 | 0.00 | 0.00 | 0.00 | 62 | 1013.0 |
| 20260510054059 | 64 | 224 | 1.7 | 11.3 | 0.00 | 0.00 | 0.00 | 61 | 1008.4 |
| 20260510053602 | 64 | 113 | 5.2 | 9.6 | 0.00 | 0.00 | 0.00 | 61 | 1008.4 |
| 20260510053501 | 64 | 82 | 4.3 | 9.6 | 0.00 | 0.00 | 0.00 | 61 | 1012.9 |
| 20260510053119 | 64 | 103 | 3.5 | 7.8 | 0.00 | 0.00 | 0.00 | 62 | 1008.4 |
| 20260510053002 | 64 | 138 | 3.5 | 7.8 | 0.00 | 0.00 | 0.00 | 62 | 1013.0 |
| 20260510052559 | 64 | 127 | 1.7 | 5.2 | 0.00 | 0.00 | 0.00 | 62 | 1008.5 |
| 20260510052501 | 64 | 110 | 2.6 | 5.2 | 0.00 | 0.00 | 0.00 | 62 | 1013.1 |
| 20260510052104 | 63 | 118 | 2.6 | 5.2 | 0.00 | 0.00 | 0.00 | 62 | 1008.6 |
| 20260510052001 | 63 | 179 | 1.7 | 5.2 | 0.00 | 0.00 | 0.00 | 63 | 1013.1 |
| 20260510051607 | 63 | 89 | 1.7 | 4.3 | 0.00 | 0.00 | 0.00 | 63 | 1008.4 |
| 20260510051500 | 63 | 121 | 2.6 | 5.2 | 0.00 | 0.00 | 0.00 | 63 | 1012.9 |
| 20260510051101 | 63 | 134 | 2.6 | 7.0 | 0.00 | 0.00 | 0.00 | 63 | 1008.3 |
| 20260510051004 | 63 | 113 | 3.5 | 7.8 | 0.00 | 0.00 | 0.00 | 63 | 1012.8 |
| 20260510050602 | 63 | 118 | 2.6 | 7.8 | 0.00 | 0.00 | 0.00 | 63 | 1008.3 |
| 20260510050500 | 63 | 122 | 3.5 | 7.8 | 0.00 | 0.00 | 0.00 | 63 | 1012.9 |
| 20260510050112 | 63 | 105 | 3.5 | 6.1 | 0.00 | 0.00 | 0.00 | 64 | 1008.2 |
| 20260510050005 | 63 | 121 | 3.5 | 6.1 | 0.00 | 0.00 | 0.00 | 64 | 1012.7 |
| 20260510050002 | 63 | 121 | 2.6 | 6.1 | 0.00 | 0.00 | 0.00 | 64 | 1008.2 |
| 20260510045600 | 63 | 86 | 3.5 | 7.8 | 0.00 | 0.00 | 0.00 | 64 | 1008.2 |
| 20260510045501 | 63 | 111 | 3.5 | 7.8 | 0.00 | 0.00 | 0.00 | 64 | 1012.7 |
| 20260510045100 | 63 | 126 | 3.5 | 7.8 | 0.00 | 0.00 | 0.00 | 63 | 1008.3 |
| 20260510045001 | 63 | 103 | 3.5 | 7.8 | 0.00 | 0.00 | 0.00 | 63 | 1012.8 |
| 20260510044612 | 63 | 135 | 3.5 | 7.0 | 0.00 | 0.00 | 0.00 | 64 | 1008.4 |
| 20260510044502 | 63 | 102 | 2.6 | 7.0 | 0.00 | 0.00 | 0.00 | 64 | 1012.9 |
| 20260510044059 | 63 | 73 | 1.7 | 6.1 | 0.00 | 0.00 | 0.00 | 64 | 1008.4 |
| 20260510043600 | 63 | 161 | 2.6 | 6.1 | 0.00 | 0.00 | 0.00 | 64 | 1008.4 |
| 20260510043500 | 63 | 89 | 1.7 | 5.2 | 0.00 | 0.00 | 0.00 | 64 | 1012.9 |
| 20260510043102 | 63 | 97 | 1.7 | 4.3 | 0.00 | 0.00 | 0.00 | 64 | 1008.4 |
| 20260510043001 | 63 | 106 | 1.7 | 4.3 | 0.00 | 0.00 | 0.00 | 64 | 1012.8 |
| 20260510042600 | 63 | 104 | 0.9 | 5.2 | 0.00 | 0.00 | 0.00 | 64 | 1008.4 |
| 20260510042500 | 63 | 98 | 1.7 | 5.2 | 0.00 | 0.00 | 0.00 | 64 | 1013.0 |
| 20260510042104 | 63 | 102 | 2.6 | 5.2 | 0.00 | 0.00 | 0.00 | 64 | 1008.4 |
| 20260510042002 | 63 | 89 | 2.6 | 5.2 | 0.00 | 0.00 | 0.00 | 64 | 1012.8 |
| 20260510041604 | 64 | 97 | 1.7 | 5.2 | 0.00 | 0.00 | 0.00 | 64 | 1008.5 |
| 20260510041500 | 64 | 95 | 2.6 | 5.2 | 0.00 | 0.00 | 0.00 | 64 | 1013.0 |
| 20260510041100 | 64 | 117 | 0.9 | 7.0 | 0.00 | 0.00 | 0.00 | 64 | 1008.4 |
| 20260510041000 | 64 | 84 | 3.5 | 7.0 | 0.00 | 0.00 | 0.00 | 64 | 1013.0 |
| 20260510040600 | 64 | 149 | 2.6 | 7.8 | 0.00 | 0.00 | 0.00 | 63 | 1008.4 |
| 20260510040100 | 64 | 75 | 4.3 | 7.8 | 0.00 | 0.00 | 0.00 | 63 | 1008.5 |
| 20260510040004 | 64 | 134 | 3.5 | 7.0 | 0.00 | 0.00 | 0.00 | 63 | 1013.0 |
| 20260510040002 | 64 | 134 | 3.5 | 7.0 | 0.00 | 0.00 | 0.00 | 63 | 1008.5 |
| 20260510035559 | 64 | 71 | 3.5 | 7.0 | 0.00 | 0.00 | 0.00 | 63 | 1008.5 |
| 20260510035502 | 64 | 113 | 2.6 | 6.1 | 0.00 | 0.00 | 0.00 | 63 | 1013.0 |
| 20260510035059 | 64 | 140 | 2.6 | 5.2 | 0.00 | 0.00 | 0.00 | 63 | 1008.6 |
| 20260510035001 | 64 | 128 | 2.6 | 5.2 | 0.00 | 0.00 | 0.00 | 63 | 1013.1 |
| 20260510034600 | 64 | 110 | 1.7 | 5.2 | 0.00 | 0.00 | 0.00 | 62 | 1008.5 |
| 20260510034500 | 64 | 117 | 1.7 | 5.2 | 0.00 | 0.00 | 0.00 | 62 | 1013.1 |
| 20260510034102 | 64 | 126 | 1.7 | 7.0 | 0.00 | 0.00 | 0.00 | 62 | 1008.5 |
| 20260510034001 | 65 | 109 | 2.6 | 7.0 | 0.00 | 0.00 | 0.00 | 62 | 1013.0 |
| 20260510033602 | 65 | 62 | 2.6 | 7.0 | 0.00 | 0.00 | 0.00 | 62 | 1008.5 |
| 20260510033502 | 65 | 96 | 2.6 | 7.0 | 0.00 | 0.00 | 0.00 | 62 | 1013.1 |
| 20260510033112 | 65 | 102 | 2.6 | 5.2 | 0.00 | 0.00 | 0.00 | 62 | 1008.6 |
| 20260510033001 | 65 | 147 | 1.7 | 5.2 | 0.00 | 0.00 | 0.00 | 62 | 1013.1 |
| 20260510032602 | 65 | 126 | 0.9 | 5.2 | 0.00 | 0.00 | 0.00 | 62 | 1008.5 |
| 20260510032500 | 65 | 143 | 1.7 | 5.2 | 0.00 | 0.00 | 0.00 | 62 | 1013.1 |
| 20260510032059 | 65 | 119 | 1.7 | 5.2 | 0.00 | 0.00 | 0.00 | 62 | 1008.5 |
| 20260510032000 | 65 | 79 | 1.7 | 5.2 | 0.00 | 0.00 | 0.00 | 62 | 1013.0 |
| 20260510031600 | 65 | 109 | 0.9 | 3.5 | 0.00 | 0.00 | 0.00 | 62 | 1008.5 |
| 20260510031501 | 65 | 95 | 0.9 | 3.5 | 0.00 | 0.00 | 0.00 | 62 | 1013.0 |
| 20260510031100 | 65 | 131 | 0.9 | 2.6 | 0.00 | 0.00 | 0.00 | 62 | 1008.4 |
| 20260510031002 | 65 | 120 | 1.7 | 3.5 | 0.00 | 0.00 | 0.00 | 62 | 1013.0 |
| 20260510030559 | 65 | 84 | 0.9 | 3.5 | 0.00 | 0.00 | 0.00 | 62 | 1008.5 |
| 20260510030500 | 65 | 139 | 2.6 | 4.3 | 0.00 | 0.00 | 0.00 | 62 | 1013.0 |
| 20260510030112 | 65 | 139 | 1.7 | 5.2 | 0.00 | 0.00 | 0.00 | 62 | 1008.5 |
| 20260510030005 | 65 | 86 | 2.6 | 5.2 | 0.00 | 0.00 | 0.00 | 62 | 1013.0 |
| 20260510025600 | 65 | 124 | 1.7 | 6.1 | 0.00 | 0.00 | 0.00 | 62 | 1008.4 |
| 20260510025500 | 65 | 94 | 1.7 | 6.1 | 0.00 | 0.00 | 0.00 | 62 | 1012.9 |
| 20260510025059 | 65 | 86 | 1.7 | 6.1 | 0.00 | 0.00 | 0.00 | 62 | 1008.4 |
| 20260510025002 | 65 | 131 | 2.6 | 6.1 | 0.00 | 0.00 | 0.00 | 62 | 1012.9 |
| 20260510024600 | 65 | 85 | 1.7 | 4.3 | 0.00 | 0.00 | 0.00 | 62 | 1008.4 |
| 20260510024500 | 65 | 94 | 2.6 | 4.3 | 0.00 | 0.00 | 0.00 | 62 | 1012.9 |
| 20260510024102 | 65 | 134 | 1.7 | 5.2 | 0.00 | 0.00 | 0.00 | 61 | 1008.4 |
| 20260510024001 | 65 | 94 | 2.6 | 5.2 | 0.00 | 0.00 | 0.00 | 61 | 1012.8 |
| 20260510023559 | 65 | 197 | 2.6 | 5.2 | 0.00 | 0.00 | 0.00 | 61 | 1008.3 |
| 20260510023500 | 65 | 89 | 1.7 | 5.2 | 0.00 | 0.00 | 0.00 | 61 | 1012.8 |
| 20260510023059 | 65 | 71 | 2.6 | 5.2 | 0.00 | 0.00 | 0.00 | 61 | 1008.4 |
| 20260510022600 | 65 | 141 | 0.9 | 6.1 | 0.00 | 0.00 | 0.00 | 61 | 1008.4 |
| 20260510022500 | 65 | 96 | 1.7 | 6.1 | 0.00 | 0.00 | 0.00 | 62 | 1012.8 |
| 20260510022100 | 65 | 115 | 1.7 | 5.2 | 0.00 | 0.00 | 0.00 | 62 | 1008.4 |
| 20260510022001 | 65 | 101 | 1.7 | 3.5 | 0.00 | 0.00 | 0.00 | 62 | 1012.9 |
| 20260510021600 | 65 | 32 | 0.9 | 4.3 | 0.00 | 0.00 | 0.00 | 62 | 1008.4 |
| 20260510021500 | 65 | 63 | 1.7 | 4.3 | 0.00 | 0.00 | 0.00 | 62 | 1013.0 |
| 20260510021059 | 65 | 113 | 0.9 | 5.2 | 0.00 | 0.00 | 0.00 | 62 | 1008.5 |
| 20260510021003 | 65 | 146 | 1.7 | 5.2 | 0.00 | 0.00 | 0.00 | 62 | 1013.0 |
| 20260510020559 | 65 | 98 | 1.7 | 7.8 | 0.00 | 0.00 | 0.00 | 62 | 1008.5 |
| 20260510020500 | 65 | 122 | 3.5 | 7.8 | 0.00 | 0.00 | 0.00 | 62 | 1013.0 |
| 20260510020100 | 65 | 91 | 2.6 | 7.8 | 0.00 | 0.00 | 0.00 | 62 | 1008.4 |
| 20260510020005 | 65 | 96 | 4.3 | 7.8 | 0.00 | 0.00 | 0.00 | 62 | 1013.0 |
| 20260510020002 | 65 | 96 | 4.3 | 7.8 | 0.00 | 0.00 | 0.00 | 62 | 1008.4 |
| 20260510015600 | 65 | 94 | 3.5 | 7.8 | 0.00 | 0.00 | 0.00 | 62 | 1008.5 |
| 20260510015500 | 65 | 113 | 3.5 | 7.8 | 0.00 | 0.00 | 0.00 | 62 | 1013.0 |
| 20260510015059 | 65 | 99 | 2.6 | 7.8 | 0.00 | 0.00 | 0.00 | 62 | 1008.5 |
| 20260510015000 | 65 | 96 | 3.5 | 7.8 | 0.00 | 0.00 | 0.00 | 62 | 1013.0 |
| 20260510014604 | 65 | 111 | 3.5 | 7.8 | 0.00 | 0.00 | 0.00 | 62 | 1008.4 |
| 20260510014500 | 65 | 117 | 3.5 | 6.1 | 0.00 | 0.00 | 0.00 | 62 | 1012.9 |
| 20260510014102 | 65 | 141 | 3.5 | 7.8 | 0.00 | 0.00 | 0.00 | 62 | 1008.4 |
| 20260510014002 | 65 | 121 | 3.5 | 7.8 | 0.00 | 0.00 | 0.00 | 62 | 1012.9 |
| 20260510013600 | 65 | 116 | 2.6 | 7.8 | 0.00 | 0.00 | 0.00 | 62 | 1008.4 |
| 20260510013500 | 65 | 186 | 3.5 | 7.8 | 0.00 | 0.00 | 0.00 | 62 | 1012.9 |
| 20260510013100 | 65 | 130 | 2.6 | 10.4 | 0.00 | 0.00 | 0.00 | 61 | 1008.4 |
| 20260510012601 | 65 | 122 | 4.3 | 10.4 | 0.00 | 0.00 | 0.00 | 61 | 1008.4 |
| 20260510012500 | 65 | 98 | 4.3 | 10.4 | 0.00 | 0.00 | 0.00 | 61 | 1013.0 |
| 20260510012059 | 65 | 126 | 4.3 | 8.7 | 0.00 | 0.00 | 0.00 | 61 | 1008.4 |
| 20260510012002 | 65 | 121 | 4.3 | 8.7 | 0.00 | 0.00 | 0.00 | 61 | 1013.0 |
| 20260510011600 | 65 | 129 | 4.3 | 8.7 | 0.00 | 0.00 | 0.00 | 61 | 1008.4 |
| 20260510011500 | 65 | 89 | 4.3 | 8.7 | 0.00 | 0.00 | 0.00 | 61 | 1012.9 |
| 20260510011059 | 65 | 124 | 4.3 | 7.8 | 0.00 | 0.00 | 0.00 | 61 | 1008.5 |
| 20260510011001 | 65 | 83 | 3.5 | 7.8 | 0.00 | 0.00 | 0.00 | 61 | 1013.0 |
| 20260510010559 | 65 | 143 | 2.6 | 7.0 | 0.00 | 0.00 | 0.00 | 61 | 1008.5 |
| 20260510010500 | 66 | 80 | 3.5 | 7.0 | 0.00 | 0.00 | 0.00 | 61 | 1013.1 |
| 20260510010059 | 66 | 101 | 2.6 | 9.6 | 0.00 | 0.00 | 0.00 | 61 | 1008.6 |
| 20260510010004 | 66 | 110 | 4.3 | 9.6 | 0.00 | 0.00 | 0.00 | 61 | 1013.1 |
| 20260510010002 | 66 | 110 | 2.6 | 9.6 | 0.00 | 0.00 | 0.00 | 61 | 1008.6 |
| 20260510005600 | 66 | 101 | 4.3 | 10.4 | 0.00 | 0.00 | 0.00 | 60 | 1008.6 |
| 20260510005500 | 66 | 104 | 5.2 | 11.3 | 0.00 | 0.00 | 0.00 | 60 | 1013.2 |
| 20260510005059 | 66 | 117 | 5.2 | 11.3 | 0.00 | 0.00 | 0.00 | 60 | 1008.5 |
| 20260510005000 | 66 | 113 | 5.2 | 11.3 | 0.00 | 0.00 | 0.00 | 60 | 1013.1 |
| 20260510004559 | 66 | 110 | 5.2 | 11.3 | 0.00 | 0.00 | 0.00 | 60 | 1008.5 |
| 20260510004501 | 66 | 86 | 5.2 | 11.3 | 0.00 | 0.00 | 0.00 | 60 | 1013.1 |
| 20260510004059 | 66 | 142 | 4.3 | 10.4 | 0.00 | 0.00 | 0.00 | 61 | 1008.6 |
| 20260510004002 | 66 | 127 | 4.3 | 10.4 | 0.00 | 0.00 | 0.00 | 61 | 1013.1 |
| 20260510003559 | 66 | 115 | 3.5 | 7.8 | 0.00 | 0.00 | 0.00 | 60 | 1008.5 |
| 20260510003500 | 66 | 159 | 3.5 | 7.8 | 0.00 | 0.00 | 0.00 | 60 | 1013.0 |
| 20260510003104 | 66 | 113 | 2.6 | 8.7 | 0.00 | 0.00 | 0.00 | 60 | 1008.4 |
| 20260510003000 | 66 | 83 | 4.3 | 8.7 | 0.00 | 0.00 | 0.00 | 60 | 1013.1 |
| 20260510002601 | 66 | 95 | 5.2 | 8.7 | 0.00 | 0.00 | 0.00 | 60 | 1008.5 |
| 20260510002500 | 66 | 70 | 3.5 | 8.7 | 0.00 | 0.00 | 0.00 | 60 | 1013.0 |
| 20260510002059 | 66 | 52 | 1.7 | 7.0 | 0.00 | 0.00 | 0.00 | 59 | 1008.5 |
| 20260510001600 | 66 | 82 | 3.5 | 10.4 | 0.00 | 0.00 | 0.00 | 59 | 1008.4 |
| 20260510001501 | 66 | 174 | 4.3 | 10.4 | 0.00 | 0.00 | 0.00 | 59 | 1013.0 |
| 20260510001059 | 66 | 138 | 4.3 | 10.4 | 0.00 | 0.00 | 0.00 | 59 | 1008.4 |
| 20260510000600 | 66 | 96 | 3.5 | 8.7 | 0.00 | 0.00 | 0.00 | 58 | 1008.4 |
| 20260510000502 | 67 | 143 | 4.3 | 8.7 | 0.00 | 0.00 | 0.00 | 58 | 1012.9 |
| 20260510000005 | 67 | 104 | 3.5 | 8.7 | 0.00 | 0.00 | 0.00 | 58 | 1012.8 |
| 20260510000002 | 67 | 104 | 4.3 | 8.7 | 0.00 | 0.00 | 0.00 | 58 | 1008.3 |
| 20260509235559 | 67 | 75 | 2.6 | 9.6 | 0.00 | 0.00 | 0.00 | 58 | 1008.4 |
| 20260509235501 | 67 | 158 | 4.3 | 9.6 | 0.00 | 0.00 | 0.00 | 57 | 1012.9 |
| 20260509235059 | 67 | 177 | 3.5 | 9.6 | 0.00 | 0.00 | 0.00 | 57 | 1008.5 |
| 20260509235001 | 67 | 78 | 4.3 | 9.6 | 0.00 | 0.00 | 0.00 | 57 | 1013.0 |
| 20260509234602 | 67 | 153 | 3.5 | 8.7 | 0.00 | 0.00 | 0.00 | 57 | 1008.5 |
| 20260509234500 | 67 | 126 | 3.5 | 8.7 | 0.00 | 0.00 | 0.00 | 57 | 1013.1 |
| 20260509234100 | 67 | 145 | 2.6 | 11.3 | 0.00 | 0.00 | 0.00 | 58 | 1008.6 |
| 20260509234000 | 67 | 155 | 3.5 | 11.3 | 0.00 | 0.00 | 0.00 | 58 | 1013.1 |
| 20260509233559 | 67 | 75 | 2.6 | 11.3 | 0.00 | 0.00 | 0.00 | 58 | 1008.5 |
| 20260509233501 | 67 | 150 | 3.5 | 11.3 | 0.00 | 0.00 | 0.00 | 58 | 1013.0 |
| 20260509233105 | 67 | 76 | 2.6 | 8.7 | 0.00 | 0.00 | 0.00 | 58 | 1008.5 |
| 20260509233000 | 67 | 72 | 3.5 | 8.7 | 0.00 | 0.00 | 0.00 | 58 | 1013.1 |
| 20260509232559 | 67 | 100 | 4.3 | 8.7 | 0.00 | 0.00 | 0.00 | 58 | 1008.6 |
| 20260509232500 | 67 | 88 | 2.6 | 6.1 | 0.00 | 0.00 | 0.00 | 58 | 1013.1 |
| 20260509232101 | 67 | 157 | 0.9 | 7.0 | 0.00 | 0.00 | 0.00 | 59 | 1008.6 |
| 20260509232000 | 66 | 179 | 2.6 | 7.0 | 0.00 | 0.00 | 0.00 | 59 | 1013.1 |
| 20260509231600 | 66 | 124 | 2.6 | 7.0 | 0.00 | 0.00 | 0.00 | 60 | 1008.5 |
| 20260509231501 | 66 | 96 | 1.7 | 6.1 | 0.00 | 0.00 | 0.00 | 60 | 1013.2 |
| 20260509231100 | 66 | 92 | 1.7 | 5.2 | 0.00 | 0.00 | 0.00 | 60 | 1008.7 |
| 20260509230601 | 66 | 113 | 0.9 | 5.2 | 0.00 | 0.00 | 0.00 | 60 | 1008.8 |
| 20260509230500 | 67 | 98 | 1.7 | 5.2 | 0.00 | 0.00 | 0.00 | 59 | 1013.3 |
| 20260509230100 | 67 | 122 | 1.7 | 5.2 | 0.00 | 0.00 | 0.00 | 59 | 1008.8 |
| 20260509230005 | 67 | 174 | 1.7 | 5.2 | 0.00 | 0.00 | 0.00 | 59 | 1013.3 |
| 20260509230002 | 67 | 174 | 1.7 | 5.2 | 0.00 | 0.00 | 0.00 | 59 | 1008.8 |
| 20260509225600 | 67 | 99 | 0.0 | 4.3 | 0.00 | 0.00 | 0.00 | 59 | 1008.9 |
| 20260509225100 | 67 | 151 | 1.7 | 5.2 | 0.00 | 0.00 | 0.00 | 59 | 1008.8 |
| 20260509225002 | 67 | 82 | 2.6 | 5.2 | 0.00 | 0.00 | 0.00 | 59 | 1013.3 |
| 20260509224601 | 67 | 121 | 2.6 | 6.1 | 0.00 | 0.00 | 0.00 | 59 | 1008.8 |
| 20260509224102 | 67 | 125 | 2.6 | 7.0 | 0.00 | 0.00 | 0.00 | 59 | 1008.8 |
| 20260509224000 | 67 | 108 | 3.5 | 7.8 | 0.00 | 0.00 | 0.00 | 59 | 1013.4 |
| 20260509223601 | 67 | 158 | 2.6 | 7.8 | 0.00 | 0.00 | 0.00 | 59 | 1008.9 |
| 20260509223500 | 67 | 136 | 4.3 | 8.7 | 0.00 | 0.00 | 0.00 | 58 | 1013.4 |
| 20260509223102 | 67 | 51 | 4.3 | 8.7 | 0.00 | 0.00 | 0.00 | 58 | 1008.9 |
| 20260509222600 | 67 | 108 | 2.6 | 8.7 | 0.00 | 0.00 | 0.00 | 59 | 1008.8 |
| 20260509222500 | 67 | 85 | 4.3 | 8.7 | 0.00 | 0.00 | 0.00 | 59 | 1013.4 |
| 20260509222100 | 67 | 111 | 4.3 | 8.7 | 0.00 | 0.00 | 0.00 | 59 | 1008.8 |
| 20260509221559 | 67 | 103 | 4.3 | 9.6 | 0.00 | 0.00 | 0.00 | 60 | 1008.8 |
| 20260509221500 | 67 | 125 | 5.2 | 9.6 | 0.00 | 0.00 | 0.00 | 60 | 1013.4 |
| 20260509221100 | 67 | 120 | 5.2 | 10.4 | 0.00 | 0.00 | 0.00 | 61 | 1008.9 |
| 20260509221002 | 67 | 112 | 6.1 | 10.4 | 0.00 | 0.00 | 0.00 | 61 | 1013.4 |
| 20260509220600 | 67 | 105 | 6.1 | 10.4 | 0.00 | 0.00 | 0.00 | 61 | 1009.0 |
| 20260509220503 | 67 | 101 | 5.2 | 10.4 | 0.00 | 0.00 | 0.00 | 61 | 1013.5 |
| 20260509220007 | 67 | 110 | 4.3 | 8.7 | 0.00 | 0.00 | 0.00 | 61 | 1013.6 |
| 20260509220004 | 67 | 110 | 4.3 | 8.7 | 0.00 | 0.00 | 0.00 | 61 | 1009.0 |
| 20260509215559 | 67 | 116 | 4.3 | 8.7 | 0.00 | 0.00 | 0.00 | 61 | 1009.1 |
| 20260509215500 | 67 | 68 | 4.3 | 8.7 | 0.00 | 0.00 | 0.00 | 61 | 1013.6 |
| 20260509215100 | 67 | 92 | 3.5 | 6.1 | 0.00 | 0.00 | 0.00 | 61 | 1009.1 |
| 20260509215001 | 67 | 125 | 3.5 | 6.1 | 0.00 | 0.00 | 0.00 | 61 | 1013.6 |
| 20260509214600 | 67 | 91 | 2.6 | 6.1 | 0.00 | 0.00 | 0.00 | 60 | 1009.1 |
| 20260509214503 | 67 | 116 | 1.7 | 6.1 | 0.00 | 0.00 | 0.00 | 60 | 1013.6 |
| 20260509214059 | 67 | 119 | 1.7 | 3.5 | 0.00 | 0.00 | 0.00 | 59 | 1009.1 |
| 20260509214000 | 67 | 119 | 1.7 | 3.5 | 0.00 | 0.00 | 0.00 | 59 | 1013.7 |
| 20260509213559 | 67 | 94 | 0.9 | 3.5 | 0.00 | 0.00 | 0.00 | 59 | 1009.2 |
| 20260509213500 | 67 | 134 | 2.6 | 3.5 | 0.00 | 0.00 | 0.00 | 59 | 1013.7 |
| 20260509213102 | 68 | 98 | 1.7 | 8.7 | 0.00 | 0.00 | 0.00 | 58 | 1009.2 |
| 20260509213001 | 68 | 61 | 3.5 | 8.7 | 0.00 | 0.00 | 0.00 | 58 | 1013.6 |
| 20260509212559 | 68 | 73 | 3.5 | 8.7 | 0.00 | 0.00 | 0.00 | 58 | 1009.0 |
| 20260509212501 | 68 | 88 | 4.3 | 8.7 | 0.00 | 0.00 | 0.00 | 58 | 1013.6 |
| 20260509212059 | 68 | 94 | 3.5 | 8.7 | 0.00 | 0.00 | 0.00 | 58 | 1008.9 |
| 20260509212000 | 68 | 75 | 4.3 | 8.7 | 0.00 | 0.00 | 0.00 | 58 | 1013.5 |
| 20260509211606 | 68 | 96 | 5.2 | 8.7 | 0.00 | 0.00 | 0.00 | 58 | 1008.9 |
| 20260509211500 | 68 | 83 | 3.5 | 8.7 | 0.00 | 0.00 | 0.00 | 58 | 1013.4 |
| 20260509211059 | 68 | 64 | 2.6 | 5.2 | 0.00 | 0.00 | 0.00 | 58 | 1009.0 |
| 20260509211000 | 68 | 127 | 1.7 | 4.3 | 0.00 | 0.00 | 0.00 | 57 | 1013.5 |
| 20260509210610 | 68 | 122 | 1.7 | 7.8 | 0.00 | 0.00 | 0.00 | 57 | 1008.9 |
| 20260509210502 | 68 | 127 | 2.6 | 7.8 | 0.00 | 0.00 | 0.00 | 57 | 1013.5 |
| 20260509210004 | 68 | 110 | 4.3 | 7.8 | 0.00 | 0.00 | 0.00 | 56 | 1008.9 |
| 20260509205558 | 68 | 82 | 3.5 | 7.8 | 0.00 | 0.00 | 0.00 | 56 | 1008.9 |
| 20260509205459 | 68 | 60 | 4.3 | 8.7 | 0.00 | 0.00 | 0.00 | 56 | 1013.4 |
| 20260509205059 | 68 | 116 | 2.6 | 8.7 | 0.00 | 0.00 | 0.00 | 56 | 1009.0 |
| 20260509204959 | 68 | 91 | 5.2 | 9.6 | 0.00 | 0.00 | 0.00 | 56 | 1013.5 |
| 20260509204559 | 69 | 110 | 4.3 | 9.6 | 0.00 | 0.00 | 0.00 | 56 | 1009.0 |
| 20260509204502 | 69 | 89 | 5.2 | 9.6 | 0.00 | 0.00 | 0.00 | 56 | 1013.5 |
| 20260509204059 | 69 | 77 | 3.5 | 8.7 | 0.00 | 0.00 | 0.00 | 56 | 1009.0 |
| 20260509204000 | 69 | 78 | 5.2 | 8.7 | 0.00 | 0.00 | 0.00 | 56 | 1013.6 |
| 20260509203558 | 69 | 129 | 5.2 | 11.3 | 0.00 | 0.00 | 0.00 | 56 | 1008.9 |
| 20260509203459 | 69 | 103 | 5.2 | 11.3 | 0.00 | 0.00 | 0.00 | 57 | 1013.4 |
| 20260509203111 | 69 | 72 | 5.2 | 11.3 | 0.00 | 0.00 | 0.00 | 57 | 1008.9 |
| 20260509203000 | 69 | 110 | 5.2 | 11.3 | 0.00 | 0.00 | 0.00 | 57 | 1013.3 |
| 20260509202559 | 69 | 118 | 5.2 | 9.6 | 0.00 | 0.00 | 0.00 | 57 | 1008.9 |
| 20260509202500 | 69 | 106 | 5.2 | 9.6 | 0.00 | 0.00 | 0.00 | 57 | 1013.4 |
| 20260509202103 | 69 | 103 | 4.3 | 7.8 | 0.00 | 0.00 | 0.00 | 58 | 1008.8 |
| 20260509202000 | 69 | 124 | 4.3 | 7.8 | 0.00 | 0.00 | 0.00 | 58 | 1013.3 |
| 20260509201605 | 69 | 89 | 3.5 | 8.7 | 0.00 | 0.00 | 0.00 | 58 | 1008.8 |
| 20260509201500 | 69 | 82 | 4.3 | 8.7 | 0.00 | 0.00 | 0.00 | 58 | 1013.3 |
| 20260509201059 | 69 | 141 | 3.5 | 8.7 | 0.00 | 0.00 | 0.00 | 58 | 1008.7 |
| 20260509201000 | 69 | 105 | 4.3 | 8.7 | 0.00 | 0.00 | 0.00 | 58 | 1013.2 |
| 20260509200559 | 69 | 116 | 3.5 | 8.7 | 0.00 | 0.00 | 0.00 | 58 | 1008.6 |
| 20260509200501 | 69 | 121 | 5.2 | 8.7 | 0.00 | 0.00 | 0.00 | 58 | 1013.0 |
| 20260509200110 | 69 | 77 | 5.2 | 11.3 | 0.00 | 0.00 | 0.00 | 59 | 1008.5 |
| 20260509200005 | 69 | 91 | 5.2 | 11.3 | 0.00 | 0.00 | 0.00 | 59 | 1013.0 |
| 20260509200002 | 69 | 91 | 5.2 | 11.3 | 0.00 | 0.00 | 0.00 | 59 | 1008.5 |
| 20260509195601 | 69 | 101 | 4.3 | 11.3 | 0.00 | 0.00 | 0.00 | 60 | 1008.3 |
| 20260509195500 | 69 | 91 | 4.3 | 10.4 | 0.00 | 0.00 | 0.00 | 61 | 1012.9 |
| 20260509195059 | 69 | 51 | 4.3 | 10.4 | 0.00 | 0.00 | 0.00 | 62 | 1008.4 |
| 20260509195002 | 69 | 82 | 4.3 | 10.4 | 0.00 | 0.00 | 0.00 | 63 | 1013.0 |
| 20260509194559 | 69 | 101 | 4.3 | 8.7 | 0.00 | 0.00 | 0.00 | 64 | 1008.5 |
| 20260509194100 | 69 | 120 | 4.3 | 10.4 | 0.00 | 0.00 | 0.00 | 64 | 1008.6 |
| 20260509194002 | 69 | 108 | 5.2 | 10.4 | 0.00 | 0.00 | 0.00 | 64 | 1013.1 |
| 20260509193606 | 69 | 134 | 5.2 | 10.4 | 0.00 | 0.00 | 0.00 | 64 | 1008.6 |
| 20260509193500 | 69 | 108 | 5.2 | 9.6 | 0.00 | 0.00 | 0.00 | 65 | 1013.1 |
| 20260509193115 | 69 | 82 | 4.3 | 10.4 | 0.00 | 0.00 | 0.00 | 63 | 1008.6 |
| 20260509193001 | 69 | 107 | 5.2 | 10.4 | 0.00 | 0.00 | 0.00 | 62 | 1013.2 |
| 20260509192601 | 69 | 76 | 5.2 | 10.4 | 0.00 | 0.00 | 0.00 | 62 | 1008.6 |
| 20260509192500 | 69 | 68 | 5.2 | 10.4 | 0.00 | 0.00 | 0.00 | 62 | 1013.1 |
| 20260509192059 | 69 | 104 | 4.3 | 9.6 | 0.00 | 0.00 | 0.00 | 63 | 1008.6 |
| 20260509192002 | 69 | 87 | 5.2 | 9.6 | 0.00 | 0.00 | 0.00 | 63 | 1013.2 |
| 20260509191559 | 69 | 98 | 4.3 | 7.8 | 0.00 | 0.00 | 0.00 | 62 | 1008.6 |
| 20260509191500 | 69 | 84 | 3.5 | 7.8 | 0.00 | 0.00 | 0.00 | 62 | 1013.2 |
| 20260509191103 | 69 | 69 | 3.5 | 7.8 | 0.00 | 0.00 | 0.00 | 62 | 1008.6 |
| 20260509191001 | 69 | 87 | 3.5 | 7.8 | 0.00 | 0.00 | 0.00 | 62 | 1013.0 |
| 20260509190601 | 69 | 82 | 1.7 | 6.1 | 0.00 | 0.00 | 0.00 | 62 | 1008.5 |
| 20260509190500 | 69 | 81 | 2.6 | 6.1 | 0.00 | 0.00 | 0.00 | 62 | 1013.0 |
| 20260509190106 | 70 | 115 | 2.6 | 4.3 | 0.00 | 0.00 | 0.00 | 62 | 1008.4 |
| 20260509190006 | 70 | 73 | 2.6 | 4.3 | 0.00 | 0.00 | 0.00 | 62 | 1013.0 |
| 20260509190003 | 70 | 73 | 2.6 | 4.3 | 0.00 | 0.00 | 0.00 | 62 | 1008.4 |
| 20260509185559 | 70 | 95 | 2.6 | 5.2 | 0.00 | 0.00 | 0.00 | 61 | 1008.3 |
| 20260509185500 | 70 | 90 | 2.6 | 5.2 | 0.00 | 0.00 | 0.00 | 61 | 1012.8 |
| 20260509185100 | 70 | 144 | 2.6 | 5.2 | 0.00 | 0.00 | 0.00 | 60 | 1008.3 |
| 20260509185000 | 70 | 73 | 1.7 | 5.2 | 0.00 | 0.00 | 0.00 | 60 | 1012.8 |
| 20260509184609 | 70 | 79 | 0.9 | 3.5 | 0.00 | 0.00 | 0.00 | 59 | 1008.2 |
| 20260509184500 | 70 | 91 | 1.7 | 3.5 | 0.00 | 0.00 | 0.00 | 59 | 1012.7 |
| 20260509184059 | 70 | 102 | 0.9 | 3.5 | 0.00 | 0.00 | 0.00 | 58 | 1008.2 |
| 20260509184002 | 70 | 110 | 2.6 | 4.3 | 0.00 | 0.00 | 0.00 | 58 | 1012.8 |
| 20260509183559 | 71 | 88 | 1.7 | 4.3 | 0.00 | 0.00 | 0.00 | 57 | 1008.3 |
| 20260509183500 | 71 | 69 | 2.6 | 4.3 | 0.00 | 0.00 | 0.00 | 57 | 1012.7 |
| 20260509183059 | 71 | 86 | 1.7 | 3.5 | 0.00 | 0.00 | 0.00 | 57 | 1008.2 |
| 20260509183001 | 71 | 91 | 2.6 | 5.2 | 0.00 | 0.00 | 0.00 | 56 | 1012.7 |
| 20260509182559 | 71 | 90 | 1.7 | 5.2 | 0.00 | 0.00 | 0.00 | 56 | 1008.2 |
| 20260509182500 | 71 | 97 | 1.7 | 5.2 | 0.00 | 0.00 | 0.00 | 56 | 1012.7 |
| 20260509182100 | 72 | 74 | 1.7 | 4.3 | 0.00 | 0.00 | 0.00 | 55 | 1008.1 |
| 20260509182002 | 72 | 74 | 1.7 | 4.3 | 0.00 | 0.00 | 0.00 | 54 | 1012.7 |
| 20260509181559 | 72 | 65 | 0.9 | 3.5 | 0.00 | 0.00 | 0.00 | 54 | 1008.1 |
| 20260509181500 | 72 | 93 | 1.7 | 3.5 | 0.00 | 0.00 | 0.00 | 54 | 1012.6 |
| 20260509181059 | 72 | 103 | 1.7 | 2.6 | 0.00 | 0.00 | 0.00 | 54 | 1008.1 |
| 20260509181001 | 72 | 105 | 0.9 | 2.6 | 0.00 | 0.00 | 0.00 | 54 | 1012.6 |
| 20260509180600 | 72 | 113 | 0.9 | 3.5 | 0.00 | 0.00 | 0.00 | 53 | 1008.1 |
| 20260509180500 | 72 | 141 | 1.7 | 5.2 | 0.00 | 0.00 | 0.00 | 53 | 1012.5 |
| 20260509180059 | 72 | 68 | 0.0 | 5.2 | 0.00 | 0.00 | 0.00 | 53 | 1008.0 |
| 20260509180002 | 72 | 70 | 0.9 | 5.2 | 0.00 | 0.00 | 0.00 | 53 | 1008.0 |
| 20260509175559 | 72 | 65 | 2.6 | 5.2 | 0.00 | 0.02 | 0.00 | 53 | 1008.0 |
| 20260509175502 | 72 | 75 | 1.7 | 4.3 | 0.00 | 0.02 | 0.00 | 53 | 1012.5 |
| 20260509175059 | 71 | 60 | 1.7 | 4.3 | 0.00 | 0.02 | 0.00 | 55 | 1007.8 |
| 20260509175000 | 71 | 88 | 0.9 | 4.3 | 0.00 | 0.02 | 0.00 | 55 | 1012.4 |
| 20260509174602 | 71 | 68 | 0.9 | 4.3 | 0.00 | 0.02 | 0.00 | 56 | 1007.8 |
| 20260509174500 | 71 | 84 | 0.9 | 4.3 | 0.00 | 0.02 | 0.00 | 56 | 1012.3 |
| 20260509174100 | 71 | 158 | 0.0 | 3.5 | 0.00 | 0.02 | 0.00 | 56 | 1007.8 |
| 20260509173600 | 71 | 96 | 0.9 | 3.5 | 0.00 | 0.02 | 0.00 | 56 | 1007.7 |
| 20260509173502 | 72 | 55 | 1.7 | 3.5 | 0.00 | 0.02 | 0.00 | 56 | 1012.2 |
| 20260509173108 | 72 | 72 | 0.9 | 3.5 | 0.00 | 0.02 | 0.00 | 54 | 1007.7 |
| 20260509173001 | 72 | 20 | 1.7 | 3.5 | 0.00 | 0.02 | 0.00 | 52 | 1012.2 |
| 20260509172559 | 72 | 82 | 0.9 | 3.5 | 0.00 | 0.02 | 0.00 | 51 | 1007.7 |
| 20260509172500 | 72 | 85 | 1.7 | 3.5 | 0.00 | 0.02 | 0.00 | 50 | 1012.2 |
| 20260509172100 | 72 | 65 | 1.7 | 4.3 | 0.00 | 0.02 | 0.00 | 51 | 1007.7 |
| 20260509172000 | 72 | 84 | 1.7 | 4.3 | 0.00 | 0.02 | 0.00 | 51 | 1012.1 |
| 20260509171627 | 73 | 33 | 1.7 | 4.3 | 0.00 | 0.02 | 0.00 | 50 | 1007.6 |
| 20260509171501 | 73 | 65 | 1.7 | 4.3 | 0.00 | 0.02 | 0.00 | 50 | 1012.1 |
| 20260509171059 | 73 | 69 | 0.9 | 4.3 | 0.00 | 0.02 | 0.00 | 50 | 1007.5 |
| 20260509171000 | 73 | 69 | 1.7 | 2.6 | 0.00 | 0.02 | 0.00 | 50 | 1012.0 |
| 20260509170559 | 73 | 54 | 0.9 | 3.5 | 0.00 | 0.02 | 0.00 | 50 | 1007.5 |
| 20260509170501 | 73 | 120 | 1.7 | 5.2 | 0.00 | 0.02 | 0.00 | 50 | 1012.0 |
| 20260509170005 | 73 | 85 | 2.6 | 5.2 | 0.00 | 0.02 | 0.00 | 49 | 1012.0 |
| 20260509170002 | 73 | 85 | 1.7 | 5.2 | 0.00 | 0.02 | 0.00 | 49 | 1007.5 |
| 20260509165559 | 73 | 73 | 2.6 | 5.2 | 0.00 | 0.02 | 0.00 | 49 | 1007.4 |
| 20260509165059 | 73 | 82 | 1.7 | 4.3 | 0.00 | 0.02 | 0.00 | 49 | 1007.4 |
| 20260509165001 | 73 | 66 | 1.7 | 4.3 | 0.00 | 0.02 | 0.00 | 48 | 1011.9 |
| 20260509164559 | 73 | 65 | 0.9 | 6.1 | 0.00 | 0.02 | 0.00 | 48 | 1007.5 |
| 20260509164500 | 73 | 114 | 1.7 | 6.1 | 0.00 | 0.02 | 0.00 | 48 | 1012.0 |
| 20260509164059 | 73 | 63 | 0.9 | 6.1 | 0.00 | 0.02 | 0.00 | 48 | 1007.5 |
| 20260509164002 | 73 | 86 | 1.7 | 6.1 | 0.00 | 0.02 | 0.00 | 48 | 1012.0 |
| 20260509163600 | 73 | 127 | 0.9 | 4.3 | 0.00 | 0.02 | 0.00 | 48 | 1007.6 |
| 20260509163500 | 73 | 95 | 0.9 | 2.6 | 0.00 | 0.02 | 0.00 | 48 | 1012.1 |
| 20260509163119 | 73 | 158 | 0.0 | 2.6 | 0.00 | 0.02 | 0.00 | 48 | 1007.5 |
| 20260509163001 | 73 | 63 | 0.9 | 2.6 | 0.00 | 0.02 | 0.00 | 49 | 1012.0 |
| 20260509162559 | 73 | 124 | 0.9 | 2.6 | 0.00 | 0.02 | 0.00 | 49 | 1007.5 |
| 20260509162500 | 73 | 89 | 0.9 | 2.6 | 0.00 | 0.02 | 0.00 | 49 | 1012.0 |
| 20260509162100 | 73 | 144 | 0.9 | 4.3 | 0.00 | 0.02 | 0.00 | 49 | 1007.5 |
| 20260509162002 | 74 | 145 | 0.9 | 4.3 | 0.00 | 0.02 | 0.00 | 49 | 1011.9 |
| 20260509161600 | 74 | 66 | 1.7 | 4.3 | 0.00 | 0.02 | 0.00 | 49 | 1007.5 |
| 20260509161500 | 74 | 66 | 0.9 | 4.3 | 0.00 | 0.02 | 0.00 | 49 | 1012.0 |
| 20260509161059 | 73 | 117 | 0.0 | 6.1 | 0.00 | 0.02 | 0.00 | 49 | 1007.5 |
| 20260509161000 | 73 | 127 | 2.6 | 6.1 | 0.00 | 0.02 | 0.00 | 49 | 1012.0 |
| 20260509160559 | 73 | 106 | 1.7 | 7.8 | 0.00 | 0.02 | 0.00 | 49 | 1007.5 |
| 20260509160100 | 73 | 84 | 3.5 | 8.7 | 0.00 | 0.02 | 0.00 | 48 | 1007.4 |
| 20260509160011 | 73 | 87 | 3.5 | 8.7 | 0.00 | 0.02 | 0.00 | 49 | 1007.4 |
| 20260509160008 | 73 | 87 | 4.3 | 8.7 | 0.00 | 0.02 | 0.00 | 49 | 1011.9 |
| 20260509155602 | 73 | 118 | 3.5 | 8.7 | 0.00 | 0.02 | 0.00 | 49 | 1007.5 |
| 20260509155500 | 73 | 112 | 3.5 | 8.7 | 0.00 | 0.02 | 0.00 | 49 | 1011.9 |
| 20260509155059 | 74 | 126 | 2.6 | 8.7 | 0.00 | 0.02 | 0.00 | 49 | 1007.4 |
| 20260509154559 | 73 | 108 | 4.3 | 8.7 | 0.00 | 0.02 | 0.00 | 49 | 1007.4 |
| 20260509154500 | 74 | 144 | 5.2 | 8.7 | 0.00 | 0.02 | 0.00 | 49 | 1012.0 |
| 20260509154100 | 74 | 72 | 5.2 | 8.7 | 0.00 | 0.02 | 0.00 | 48 | 1007.5 |
| 20260509153603 | 74 | 71 | 3.5 | 9.6 | 0.00 | 0.02 | 0.00 | 48 | 1007.5 |
| 20260509153501 | 74 | 106 | 5.2 | 9.6 | 0.00 | 0.02 | 0.00 | 48 | 1012.1 |
| 20260509153059 | 74 | 105 | 6.1 | 9.6 | 0.00 | 0.02 | 0.00 | 48 | 1007.6 |
| 20260509153001 | 74 | 110 | 5.2 | 9.6 | 0.00 | 0.02 | 0.00 | 48 | 1012.1 |
| 20260509152600 | 74 | 129 | 4.3 | 8.7 | 0.00 | 0.02 | 0.00 | 47 | 1007.7 |
| 20260509152500 | 74 | 117 | 5.2 | 8.7 | 0.00 | 0.02 | 0.00 | 47 | 1012.2 |
| 20260509152100 | 74 | 90 | 4.3 | 11.3 | 0.00 | 0.02 | 0.00 | 47 | 1007.7 |
| 20260509152002 | 74 | 100 | 4.3 | 11.3 | 0.00 | 0.02 | 0.00 | 47 | 1012.2 |
| 20260509151605 | 74 | 111 | 4.3 | 11.3 | 0.00 | 0.02 | 0.00 | 48 | 1007.7 |
| 20260509151500 | 74 | 108 | 4.3 | 11.3 | 0.00 | 0.02 | 0.00 | 48 | 1012.2 |
| 20260509151059 | 74 | 98 | 3.5 | 12.2 | 0.00 | 0.02 | 0.00 | 48 | 1007.7 |
| 20260509151000 | 74 | 119 | 5.2 | 12.2 | 0.00 | 0.02 | 0.00 | 48 | 1012.2 |
| 20260509150559 | 74 | 88 | 4.3 | 13.0 | 0.00 | 0.02 | 0.00 | 47 | 1007.8 |
| 20260509150500 | 74 | 129 | 5.2 | 13.0 | 0.00 | 0.02 | 0.00 | 47 | 1012.2 |
| 20260509150123 | 74 | 112 | 5.2 | 13.0 | 0.00 | 0.02 | 0.00 | 47 | 1007.7 |
| 20260509150005 | 74 | 86 | 5.2 | 13.0 | 0.00 | 0.02 | 0.00 | 47 | 1012.2 |
| 20260509150002 | 74 | 86 | 4.3 | 13.0 | 0.00 | 0.02 | 0.00 | 47 | 1007.7 |
| 20260509145559 | 74 | 113 | 6.1 | 11.3 | 0.00 | 0.02 | 0.00 | 47 | 1007.7 |
| 20260509145501 | 74 | 91 | 6.1 | 11.3 | 0.00 | 0.02 | 0.00 | 47 | 1012.2 |
| 20260509145101 | 75 | 156 | 6.1 | 9.6 | 0.00 | 0.02 | 0.00 | 47 | 1007.7 |
| 20260509144709 | 75 | 124 | 5.2 | 11.3 | 0.00 | 0.02 | 0.00 | 46 | 1007.8 |
| 20260509144501 | 75 | 65 | 3.5 | 11.3 | 0.00 | 0.02 | 0.00 | 46 | 1012.3 |
| 20260509144059 | 75 | 201 | 2.6 | 11.3 | 0.00 | 0.02 | 0.00 | 47 | 1007.7 |
| 20260509144001 | 75 | 136 | 3.5 | 11.3 | 0.00 | 0.02 | 0.00 | 48 | 1012.3 |
| 20260509143559 | 74 | 68 | 3.5 | 8.7 | 0.00 | 0.02 | 0.00 | 48 | 1007.8 |
| 20260509143501 | 74 | 65 | 2.6 | 8.7 | 0.00 | 0.02 | 0.00 | 48 | 1012.3 |
| 20260509143100 | 74 | 122 | 0.9 | 7.0 | 0.00 | 0.02 | 0.00 | 49 | 1007.8 |
| 20260509143000 | 74 | 72 | 2.6 | 7.0 | 0.00 | 0.02 | 0.00 | 49 | 1012.4 |